createdAt,value
2018-03-02T00:00:37.185Z,-3.21
2018-03-02T00:03:04.606Z,-3.26
2018-03-02T00:05:32.038Z,-3.26
2018-03-02T00:07:59.466Z,-3.27
2018-03-02T00:10:27.370Z,-3.27
2018-03-02T00:12:54.787Z,-3.26
2018-03-02T00:15:22.211Z,-3.24
2018-03-02T00:17:49.630Z,-3.29
2018-03-02T00:20:17.053Z,-3.31
2018-03-02T00:22:44.466Z,-3.30
2018-03-02T00:25:11.887Z,-3.30
2018-03-02T00:27:39.304Z,-3.33
2018-03-02T00:30:06.717Z,-3.33
2018-03-02T00:32:34.133Z,-3.37
2018-03-02T00:35:01.548Z,-3.33
2018-03-02T00:37:28.970Z,-3.33
2018-03-02T00:39:56.380Z,-3.33
2018-03-02T00:42:23.803Z,-3.39
2018-03-02T00:44:51.226Z,-3.42
2018-03-02T00:47:18.641Z,-3.45
2018-03-02T00:49:46.054Z,-3.45
2018-03-02T00:52:13.478Z,-3.43
2018-03-02T00:54:40.885Z,-3.42
2018-03-02T00:57:08.310Z,-3.42
2018-03-02T00:59:35.716Z,-3.45
2018-03-02T01:02:03.141Z,-3.45
2018-03-02T01:04:30.557Z,-3.49
2018-03-02T01:06:58.905Z,-3.53
2018-03-02T01:09:26.304Z,-3.54
2018-03-02T01:11:53.736Z,-3.52
2018-03-02T01:14:21.160Z,-3.58
2018-03-02T01:16:48.574Z,-3.56
2018-03-02T01:19:15.985Z,-3.59
2018-03-02T01:21:43.402Z,-3.61
2018-03-02T01:24:10.805Z,-3.59
2018-03-02T01:26:38.230Z,-3.59
2018-03-02T01:29:05.663Z,-3.68
2018-03-02T01:31:33.091Z,-3.61
2018-03-02T01:34:00.509Z,-3.66
2018-03-02T01:36:27.931Z,-3.68
2018-03-02T01:38:55.341Z,-3.62
2018-03-02T01:41:22.764Z,-3.65
2018-03-02T01:43:50.165Z,-3.69
2018-03-02T01:46:17.605Z,-3.67
2018-03-02T01:48:45.018Z,-3.71
2018-03-02T01:51:24.403Z,-3.69
2018-03-02T01:53:51.816Z,-3.77
2018-03-02T01:56:19.223Z,-3.74
2018-03-02T01:58:46.648Z,-3.76
2018-03-02T02:01:14.067Z,-3.72
2018-03-02T02:03:41.489Z,-3.73
2018-03-02T02:06:08.906Z,-3.76
2018-03-02T02:08:36.347Z,-3.78
2018-03-02T02:11:03.758Z,-3.77
2018-03-02T02:13:31.172Z,-3.79
2018-03-02T02:15:58.581Z,-3.79
2018-03-02T02:18:26.846Z,-3.83
2018-03-02T02:20:54.266Z,-3.79
2018-03-02T02:23:22.133Z,-3.79
2018-03-02T02:25:49.549Z,-3.79
2018-03-02T02:28:16.971Z,-3.77
2018-03-02T02:30:44.385Z,-3.74
2018-03-02T02:33:11.806Z,-3.73
2018-03-02T02:35:39.219Z,-3.79
2018-03-02T02:38:06.637Z,-3.80
2018-03-02T02:40:34.037Z,-3.80
2018-03-02T02:43:01.720Z,-3.81
2018-03-02T02:45:29.147Z,-3.87
2018-03-02T02:47:56.556Z,-3.85
2018-03-02T02:50:24.005Z,-3.87
2018-03-02T02:52:51.412Z,-3.90
2018-03-02T02:55:18.821Z,-3.88
2018-03-02T02:57:46.234Z,-3.86
2018-03-02T03:00:13.657Z,-3.89
2018-03-02T03:02:41.067Z,-3.85
2018-03-02T03:05:08.492Z,-3.87
2018-03-02T03:07:35.929Z,-3.88
2018-03-02T03:10:03.357Z,-3.94
2018-03-02T03:12:30.752Z,-3.94
2018-03-02T03:14:58.180Z,-3.94
2018-03-02T03:17:25.603Z,-3.89
2018-03-02T03:19:53.021Z,-3.95
2018-03-02T03:22:20.428Z,-3.94
2018-03-02T03:24:47.847Z,-3.97
2018-03-02T03:27:15.253Z,-3.97
2018-03-02T03:29:42.673Z,-4.01
2018-03-02T03:32:10.093Z,-3.98
2018-03-02T03:34:37.506Z,-4.05
2018-03-02T03:37:04.937Z,-4.06
2018-03-02T03:39:32.346Z,-4.07
2018-03-02T03:41:59.756Z,-4.09
2018-03-02T03:44:27.170Z,-4.07
2018-03-02T03:46:54.582Z,-4.09
2018-03-02T03:49:21.994Z,-4.08
2018-03-02T03:51:49.406Z,-4.13
2018-03-02T03:54:16.822Z,-4.15
2018-03-02T03:56:44.232Z,-4.15
2018-03-02T03:59:12.172Z,-4.14
2018-03-02T04:01:39.583Z,-4.13
2018-03-02T04:04:07.007Z,-4.20
2018-03-02T04:06:34.461Z,-4.17
2018-03-02T04:09:01.883Z,-4.15
2018-03-02T04:11:29.297Z,-4.22
2018-03-02T04:13:56.718Z,-4.16
2018-03-02T04:16:24.142Z,-4.26
2018-03-02T04:18:51.549Z,-4.25
2018-03-02T04:21:18.964Z,-4.22
2018-03-02T04:23:46.381Z,-4.22
2018-03-02T04:26:13.801Z,-4.22
2018-03-02T04:28:41.222Z,-4.24
2018-03-02T04:31:08.642Z,-4.25
2018-03-02T04:33:36.066Z,-4.24
2018-03-02T04:36:03.504Z,-4.29
2018-03-02T04:38:30.902Z,-4.27
2018-03-02T04:40:58.313Z,-4.29
2018-03-02T04:43:25.712Z,-4.31
2018-03-02T04:45:53.132Z,-4.28
2018-03-02T04:48:20.541Z,-4.25
2018-03-02T04:50:47.960Z,-4.29
2018-03-02T04:53:15.356Z,-4.27
2018-03-02T04:55:42.780Z,-4.32
2018-03-02T04:58:10.188Z,-4.28
2018-03-02T05:00:37.613Z,-4.32
2018-03-02T05:03:05.054Z,-4.39
2018-03-02T05:05:32.464Z,-4.40
2018-03-02T05:07:59.868Z,-4.42
2018-03-02T05:10:27.295Z,-4.43
2018-03-02T05:12:54.698Z,-4.46
2018-03-02T05:15:22.116Z,-4.40
2018-03-02T05:17:49.541Z,-4.41
2018-03-02T05:20:16.962Z,-4.38
2018-03-02T05:22:44.380Z,-4.31
2018-03-02T05:25:11.807Z,-4.40
2018-03-02T05:27:39.209Z,-4.40
2018-03-02T05:30:07.416Z,-4.45
2018-03-02T05:32:34.840Z,-4.48
2018-03-02T05:35:02.248Z,-4.52
2018-03-02T05:37:29.673Z,-4.48
2018-03-02T05:39:57.085Z,-4.43
2018-03-02T05:42:24.522Z,-4.55
2018-03-02T05:44:52.222Z,-4.60
2018-03-02T05:47:19.638Z,-4.55
2018-03-02T05:49:47.046Z,-4.57
2018-03-02T05:52:14.467Z,-4.51
2018-03-02T05:54:41.864Z,-4.57
2018-03-02T05:57:09.299Z,-4.61
2018-03-02T05:59:36.712Z,-4.65
2018-03-02T06:02:04.129Z,-4.61
2018-03-02T06:04:31.553Z,-4.57
2018-03-02T06:06:59.361Z,-4.54
2018-03-02T06:09:26.710Z,-4.49
2018-03-02T06:11:54.137Z,-4.57
2018-03-02T06:14:21.551Z,-4.56
2018-03-02T06:16:48.980Z,-4.62
2018-03-02T06:19:16.394Z,-4.57
2018-03-02T06:21:43.796Z,-4.47
2018-03-02T06:24:11.226Z,-4.60
2018-03-02T06:26:39.549Z,-4.54
2018-03-02T06:29:06.978Z,-4.58
2018-03-02T06:31:34.404Z,-4.63
2018-03-02T06:34:01.882Z,-4.59
2018-03-02T06:36:29.276Z,-4.53
2018-03-02T06:38:57.389Z,-4.61
2018-03-02T06:41:24.797Z,-4.57
2018-03-02T06:43:52.228Z,-4.56
2018-03-02T06:46:19.629Z,-4.54
2018-03-02T06:48:47.048Z,-4.55
2018-03-02T06:51:14.463Z,-4.58
2018-03-02T06:53:41.885Z,-4.52
2018-03-02T06:56:09.285Z,-4.48
2018-03-02T06:58:36.704Z,-4.43
2018-03-02T07:01:04.122Z,-4.39
2018-03-02T07:03:31.545Z,-4.35
2018-03-02T07:05:58.957Z,-4.49
2018-03-02T07:08:26.369Z,-4.40
2018-03-02T07:10:53.784Z,-4.52
2018-03-02T07:13:21.193Z,-4.48
2018-03-02T07:15:48.755Z,-4.40
2018-03-02T07:18:16.170Z,-4.49
2018-03-02T07:20:43.584Z,-4.38
2018-03-02T07:23:11.912Z,-4.43
2018-03-02T07:25:39.319Z,-4.45
2018-03-02T07:28:06.745Z,-4.36
2018-03-02T07:30:34.157Z,-4.33
2018-03-02T07:33:02.124Z,-4.33
2018-03-02T07:35:29.538Z,-4.34
2018-03-02T07:37:56.936Z,-4.27
2018-03-02T07:40:24.352Z,-4.21
2018-03-02T07:42:51.757Z,-4.33
2018-03-02T07:45:19.185Z,-4.30
2018-03-02T07:47:46.593Z,-4.31
2018-03-02T07:50:14.009Z,-4.27
2018-03-02T07:52:41.430Z,-4.40
2018-03-02T07:55:08.847Z,-4.38
2018-03-02T07:57:36.263Z,-4.35
2018-03-02T08:00:03.691Z,-4.30
2018-03-02T08:02:31.088Z,-4.28
2018-03-02T08:04:58.518Z,-4.24
2018-03-02T08:07:25.924Z,-4.17
2018-03-02T08:09:53.338Z,-4.04
2018-03-02T08:12:20.741Z,-4.11
2018-03-02T08:14:48.162Z,-4.10
2018-03-02T08:17:15.575Z,-4.17
2018-03-02T08:19:42.985Z,-4.10
2018-03-02T08:22:10.399Z,-4.06
2018-03-02T08:24:37.801Z,-4.14
2018-03-02T08:27:05.231Z,-4.01
2018-03-02T08:29:32.632Z,-3.87
2018-03-02T08:32:00.050Z,-3.88
2018-03-02T08:34:27.480Z,-3.79
2018-03-02T08:36:54.891Z,-3.84
2018-03-02T08:39:22.307Z,-3.67
2018-03-02T08:41:49.721Z,-3.59
2018-03-02T08:44:17.129Z,-3.53
2018-03-02T08:46:44.561Z,-3.54
2018-03-02T08:49:11.954Z,-3.69
2018-03-02T08:51:39.373Z,-3.54
2018-03-02T08:54:06.793Z,-3.51
2018-03-02T08:56:34.211Z,-3.24
2018-03-02T08:59:01.618Z,-2.95
2018-03-02T09:01:29.034Z,-3.04
2018-03-02T09:03:56.453Z,-3.07
2018-03-02T09:06:23.862Z,-3.39
2018-03-02T09:08:51.287Z,-3.23
2018-03-02T09:11:18.701Z,-3.20
2018-03-02T09:13:46.991Z,-3.14
2018-03-02T09:16:14.402Z,-3.25
2018-03-02T09:18:41.810Z,-3.14
2018-03-02T09:21:09.224Z,-3.09
2018-03-02T09:23:36.648Z,-3.02
2018-03-02T09:26:04.055Z,-2.89
2018-03-02T09:28:31.475Z,-2.84
2018-03-02T09:30:58.885Z,-2.74
2018-03-02T09:33:26.298Z,-2.83
2018-03-02T09:35:53.720Z,-2.77
2018-03-02T09:38:21.131Z,-2.75
2018-03-02T09:40:48.545Z,-2.86
2018-03-02T09:43:15.948Z,-2.87
2018-03-02T09:45:43.356Z,-2.73
2018-03-02T09:48:10.772Z,-2.89
2018-03-02T09:50:38.182Z,-2.82
2018-03-02T09:53:05.599Z,-2.65
2018-03-02T09:55:33.012Z,-2.43
2018-03-02T09:58:00.437Z,-2.37
2018-03-02T10:00:27.844Z,-2.44
2018-03-02T10:02:55.269Z,-2.40
2018-03-02T10:05:22.674Z,-2.56
2018-03-02T10:07:50.097Z,-2.35
2018-03-02T10:10:17.502Z,-2.31
2018-03-02T10:12:44.917Z,-2.25
2018-03-02T10:15:12.329Z,-1.90
2018-03-02T10:17:39.748Z,-1.40
2018-03-02T10:20:07.152Z,-1.72
2018-03-02T10:22:34.569Z,-1.76
2018-03-02T10:25:01.984Z,-2.00
2018-03-02T10:27:29.402Z,-1.90
2018-03-02T10:29:56.821Z,-1.79
2018-03-02T10:32:24.232Z,-2.00
2018-03-02T10:34:51.647Z,-1.73
2018-03-02T10:37:19.072Z,-1.71
2018-03-02T10:39:46.482Z,-1.57
2018-03-02T10:42:13.893Z,-1.34
2018-03-02T10:44:41.301Z,-1.42
2018-03-02T10:47:08.704Z,-1.36
2018-03-02T10:49:36.130Z,-1.53
2018-03-02T10:52:03.541Z,-1.46
2018-03-02T10:54:30.970Z,-1.35
2018-03-02T10:56:58.378Z,-1.07
2018-03-02T10:59:25.810Z,-0.90
2018-03-02T11:01:55.058Z,-0.54
2018-03-02T11:04:37.482Z,-0.62
2018-03-02T11:07:04.891Z,-0.94
2018-03-02T11:09:32.305Z,-0.95
2018-03-02T11:11:59.721Z,-1.03
2018-03-02T11:14:27.148Z,-0.74
2018-03-02T11:16:54.553Z,-0.44
2018-03-02T11:19:22.911Z,-0.51
2018-03-02T11:21:50.325Z,-0.36
2018-03-02T11:24:17.738Z,-0.43
2018-03-02T11:26:45.151Z,-0.26
2018-03-02T11:29:12.557Z,0.11
2018-03-02T11:31:39.964Z,0.38
2018-03-02T11:34:07.378Z,0.53
2018-03-02T11:36:34.782Z,0.58
2018-03-02T11:39:02.198Z,0.60
2018-03-02T11:41:29.603Z,0.70
2018-03-02T11:43:57.020Z,0.82
2018-03-02T11:46:24.426Z,0.61
2018-03-02T11:48:51.848Z,1.12
2018-03-02T11:51:19.246Z,1.57
2018-03-02T11:53:46.657Z,1.26
2018-03-02T11:56:14.059Z,0.86
2018-03-02T11:58:41.477Z,1.14
2018-03-02T12:01:08.880Z,1.12
2018-03-02T12:03:36.377Z,1.06
2018-03-02T12:06:03.796Z,0.78
2018-03-02T12:08:31.204Z,0.74
2018-03-02T12:10:58.608Z,0.52
2018-03-02T12:13:26.028Z,0.81
2018-03-02T12:15:53.443Z,1.27
2018-03-02T12:18:20.845Z,1.31
2018-03-02T12:20:48.261Z,1.50
2018-03-02T12:23:15.666Z,1.80
2018-03-02T12:25:43.082Z,2.05
2018-03-02T12:28:10.485Z,2.08
2018-03-02T12:30:37.894Z,1.42
2018-03-02T12:33:05.297Z,1.62
2018-03-02T12:35:32.750Z,1.87
2018-03-02T12:38:00.170Z,1.83
2018-03-02T12:40:27.580Z,2.08
2018-03-02T12:42:55.236Z,1.30
2018-03-02T12:45:22.654Z,1.28
2018-03-02T12:47:50.052Z,1.61
2018-03-02T12:50:17.476Z,1.92
2018-03-02T12:52:44.886Z,1.78
2018-03-02T12:55:12.339Z,1.84
2018-03-02T12:57:39.705Z,2.00
2018-03-02T13:00:07.120Z,1.92
2018-03-02T13:02:34.547Z,1.36
2018-03-02T13:05:01.973Z,1.29
2018-03-02T13:07:29.375Z,1.09
2018-03-02T13:09:56.794Z,0.72
2018-03-02T13:12:24.193Z,0.75
2018-03-02T13:14:51.625Z,0.79
2018-03-02T13:17:19.026Z,0.93
2018-03-02T13:19:46.457Z,0.93
2018-03-02T13:22:25.513Z,0.62
2018-03-02T13:24:52.927Z,0.38
2018-03-02T13:27:32.389Z,0.41
2018-03-02T13:29:59.816Z,0.46
2018-03-02T13:32:27.215Z,0.37
2018-03-02T13:35:17.482Z,0.40
2018-03-02T13:37:44.886Z,0.34
2018-03-02T13:40:24.183Z,0.31
2018-03-02T13:42:51.641Z,0.05
2018-03-02T13:45:19.048Z,0.09
2018-03-02T13:50:59.569Z,0.12
2018-03-02T13:53:26.979Z,0.10
2018-03-02T13:55:54.398Z,0.13
2018-03-02T13:58:21.795Z,0.29
2018-03-02T14:00:49.200Z,0.48
2018-03-02T14:03:28.408Z,0.55
2018-03-02T14:05:55.830Z,0.81
2018-03-02T14:08:23.246Z,0.66
2018-03-02T14:10:50.664Z,0.58
2018-03-02T14:13:18.070Z,0.36
2018-03-02T14:15:45.489Z,0.36
2018-03-02T14:18:12.901Z,0.39
2018-03-02T14:20:40.305Z,0.34
2018-03-02T14:23:07.720Z,0.45
2018-03-02T14:25:35.136Z,0.47
2018-03-02T14:28:02.556Z,0.52
2018-03-02T14:30:29.962Z,0.56
2018-03-02T14:32:57.969Z,0.71
2018-03-02T14:35:25.380Z,0.51
2018-03-02T14:37:52.800Z,0.58
2018-03-02T14:40:20.210Z,0.46
2018-03-02T14:42:48.391Z,0.35
2018-03-02T14:45:15.817Z,0.49
2018-03-02T14:47:43.227Z,0.54
2018-03-02T14:50:10.638Z,0.41
2018-03-02T14:52:38.061Z,0.39
2018-03-02T14:55:05.800Z,0.33
2018-03-02T14:57:33.202Z,0.27
2018-03-02T15:00:00.607Z,0.38
2018-03-02T15:02:28.782Z,0.39
2018-03-02T15:04:56.196Z,0.48
2018-03-02T15:07:23.615Z,0.48
2018-03-02T15:09:51.025Z,0.47
2018-03-02T15:12:18.440Z,0.63
2018-03-02T15:14:45.855Z,0.47
2018-03-02T15:17:13.265Z,0.44
2018-03-02T15:19:40.684Z,0.32
2018-03-02T15:22:08.099Z,0.49
2018-03-02T15:24:35.524Z,0.43
2018-03-02T15:27:02.927Z,0.55
2018-03-02T15:29:30.921Z,0.59
2018-03-02T15:31:58.328Z,0.49
2018-03-02T15:34:25.744Z,0.49
2018-03-02T15:36:53.154Z,0.39
2018-03-02T15:39:20.573Z,0.38
2018-03-02T15:41:47.976Z,0.25
2018-03-02T15:44:15.403Z,0.26
2018-03-02T15:46:42.801Z,0.24
2018-03-02T15:49:10.230Z,0.18
2018-03-02T15:51:37.638Z,0.16
2018-03-02T15:54:05.097Z,0.13
2018-03-02T15:56:32.506Z,0.07
2018-03-02T15:58:59.912Z,0.09
2018-03-02T16:01:27.326Z,-0.03
2018-03-02T16:03:54.741Z,0.05
2018-03-02T16:06:22.149Z,0.08
2018-03-02T16:08:49.571Z,0.08
2018-03-02T16:11:16.967Z,0.17
2018-03-02T16:13:44.396Z,0.08
2018-03-02T16:16:11.805Z,0.04
2018-03-02T16:18:39.223Z,-0.05
2018-03-02T16:21:06.644Z,-0.06
2018-03-02T16:23:34.042Z,0.01
2018-03-02T16:26:01.469Z,-0.10
2018-03-02T16:28:28.890Z,-0.18
2018-03-02T16:30:56.309Z,-0.10
2018-03-02T16:33:23.729Z,-0.16
2018-03-02T16:35:51.141Z,-0.10
2018-03-02T16:38:18.550Z,-0.18
2018-03-02T16:40:45.967Z,-0.15
2018-03-02T16:43:13.376Z,-0.16
2018-03-02T16:45:40.797Z,-0.18
2018-03-02T16:48:08.210Z,-0.26
2018-03-02T16:50:35.632Z,-0.16
2018-03-02T16:53:03.453Z,-0.21
2018-03-02T16:55:30.870Z,-0.19
2018-03-02T16:57:58.276Z,-0.22
2018-03-02T17:00:25.697Z,-0.26
2018-03-02T17:02:53.114Z,-0.23
2018-03-02T17:05:20.530Z,-0.21
2018-03-02T17:07:47.939Z,-0.14
2018-03-02T17:10:15.352Z,-0.18
2018-03-02T17:12:42.767Z,-0.15
2018-03-02T17:15:10.190Z,-0.12
2018-03-02T17:17:37.602Z,-0.09
2018-03-02T17:20:05.027Z,-0.16
2018-03-02T17:22:32.433Z,-0.17
2018-03-02T17:24:59.852Z,-0.14
2018-03-02T17:27:27.256Z,-0.20
2018-03-02T17:29:54.673Z,-0.18
2018-03-02T17:32:22.416Z,-0.33
2018-03-02T17:34:50.512Z,-0.38
2018-03-02T17:37:17.946Z,-0.34
2018-03-02T17:39:45.362Z,-0.43
2018-03-02T17:42:12.789Z,-0.43
2018-03-02T17:44:40.202Z,-0.46
2018-03-02T17:47:08.221Z,-0.44
2018-03-02T17:49:35.629Z,-0.44
2018-03-02T17:52:03.049Z,-0.46
2018-03-02T17:54:30.459Z,-0.42
2018-03-02T17:56:57.872Z,-0.37
2018-03-02T17:59:25.300Z,-0.47
2018-03-02T18:01:52.713Z,-0.49
2018-03-02T18:04:20.114Z,-0.57
2018-03-02T18:06:47.524Z,-0.45
2018-03-02T18:09:14.930Z,-0.48
2018-03-02T18:11:42.353Z,-0.46
2018-03-02T18:14:09.761Z,-0.44
2018-03-02T18:16:37.189Z,-0.50
2018-03-02T18:19:04.599Z,-0.61
2018-03-02T18:21:32.276Z,-0.68
2018-03-02T18:24:00.379Z,-0.83
2018-03-02T18:26:28.585Z,-0.91
2018-03-02T18:28:56.001Z,-0.94
2018-03-02T18:31:23.424Z,-1.00
2018-03-02T18:33:50.839Z,-0.94
2018-03-02T18:36:18.263Z,-0.91
2018-03-02T18:38:45.685Z,-1.01
2018-03-02T18:41:13.097Z,-1.03
2018-03-02T18:43:40.521Z,-1.07
2018-03-02T18:46:07.931Z,-0.97
2018-03-02T18:48:35.342Z,-0.99
2018-03-02T18:51:02.744Z,-1.08
2018-03-02T18:53:30.168Z,-1.04
2018-03-02T18:55:57.573Z,-0.89
2018-03-02T18:58:24.997Z,-1.04
2018-03-02T19:00:52.421Z,-1.01
2018-03-02T19:03:19.864Z,-1.03
2018-03-02T19:05:47.256Z,-1.10
2018-03-02T19:08:14.685Z,-1.06
2018-03-02T19:10:42.097Z,-1.09
2018-03-02T19:13:09.519Z,-1.10
2018-03-02T19:15:36.923Z,-1.12
2018-03-02T19:18:04.336Z,-1.13
2018-03-02T19:20:31.742Z,-1.04
2018-03-02T19:22:59.160Z,-1.19
2018-03-02T19:25:26.688Z,-1.10
2018-03-02T19:27:54.109Z,-1.22
2018-03-02T19:30:21.531Z,-1.14
2018-03-02T19:32:48.948Z,-1.21
2018-03-02T19:35:16.570Z,-1.19
2018-03-02T19:37:43.990Z,-1.20
2018-03-02T19:40:11.411Z,-1.26
2018-03-02T19:42:39.589Z,-1.31
2018-03-02T19:45:07.001Z,-1.31
2018-03-02T19:47:34.432Z,-1.25
2018-03-02T19:50:01.859Z,-1.30
2018-03-02T19:52:29.296Z,-1.33
2018-03-02T19:54:56.689Z,-1.31
2018-03-02T19:57:24.105Z,-1.36
2018-03-02T19:59:51.533Z,-1.40
2018-03-02T20:02:18.956Z,-1.40
2018-03-02T20:04:46.943Z,-1.39
2018-03-02T20:07:14.346Z,-1.41
2018-03-02T20:09:41.881Z,-1.46
2018-03-02T20:12:09.190Z,-1.48
2018-03-02T20:14:36.608Z,-1.48
2018-03-02T20:17:04.905Z,-1.47
2018-03-02T20:19:32.333Z,-1.55
2018-03-02T20:21:59.748Z,-1.55
2018-03-02T20:24:27.171Z,-1.51
2018-03-02T20:26:54.578Z,-1.60
2018-03-02T20:29:22.001Z,-1.53
2018-03-02T20:31:49.418Z,-1.51
2018-03-02T20:34:16.833Z,-1.52
2018-03-02T20:36:44.253Z,-1.56
2018-03-02T20:39:11.831Z,-1.58
2018-03-02T20:41:39.236Z,-1.56
2018-03-02T20:44:06.747Z,-1.64
2018-03-02T20:46:34.193Z,-1.69
2018-03-02T20:49:01.916Z,-1.64
2018-03-02T20:51:29.313Z,-1.58
2018-03-02T20:53:56.737Z,-1.60
2018-03-02T20:56:24.149Z,-1.61
2018-03-02T20:58:52.381Z,-1.62
2018-03-02T21:01:20.724Z,-1.64
2018-03-02T21:03:48.134Z,-1.58
2018-03-02T21:06:15.557Z,-1.53
2018-03-02T21:08:43.170Z,-1.57
2018-03-02T21:11:10.582Z,-1.57
2018-03-02T21:13:38.478Z,-1.55
2018-03-02T21:16:05.914Z,-1.53
2018-03-02T21:18:33.329Z,-1.47
2018-03-02T21:21:00.750Z,-1.43
2018-03-02T21:23:28.173Z,-1.48
2018-03-02T21:25:55.597Z,-1.47
2018-03-02T21:28:23.272Z,-1.54
2018-03-02T21:30:50.680Z,-1.48
2018-03-02T21:33:18.306Z,-1.51
2018-03-02T21:35:45.733Z,-1.53
2018-03-02T21:38:13.151Z,-1.35
2018-03-02T21:40:41.191Z,-1.36
2018-03-02T21:43:08.600Z,-1.44
2018-03-02T21:45:36.018Z,-1.56
2018-03-02T21:48:03.426Z,-1.55
2018-03-02T21:50:30.858Z,-1.45
2018-03-02T21:52:58.263Z,-1.47
2018-03-02T21:55:25.686Z,-1.42
2018-03-02T21:57:53.366Z,-1.50
2018-03-02T22:02:38.393Z,-1.45
2018-03-02T22:05:05.833Z,-1.53
2018-03-02T22:07:33.234Z,-1.52
2018-03-02T22:10:00.658Z,-1.53
2018-03-02T22:12:28.073Z,-1.57
2018-03-02T22:14:55.481Z,-1.52
2018-03-02T22:17:22.916Z,-1.56
2018-03-02T22:19:50.752Z,-1.54
2018-03-02T22:22:18.166Z,-1.57
2018-03-02T22:24:45.588Z,-1.59
2018-03-02T22:27:13.005Z,-1.60
2018-03-02T22:29:40.418Z,-1.51
2018-03-02T22:32:07.846Z,-1.52
2018-03-02T22:34:35.258Z,-1.55
2018-03-02T22:37:02.698Z,-1.53
2018-03-02T22:39:30.113Z,-1.46
2018-03-02T22:41:57.541Z,-1.38
2018-03-02T22:44:24.953Z,-1.43
2018-03-02T22:46:52.367Z,-1.39
2018-03-02T22:49:19.784Z,-1.35
2018-03-02T22:51:47.997Z,-1.39
2018-03-02T22:54:15.409Z,-1.45
2018-03-02T22:56:42.833Z,-1.50
2018-03-02T22:59:10.246Z,-1.49
2018-03-02T23:01:37.671Z,-1.52
2018-03-02T23:04:05.086Z,-1.43
2018-03-02T23:06:32.508Z,-1.42
2018-03-02T23:08:59.930Z,-1.41
2018-03-02T23:11:27.361Z,-1.52
2018-03-02T23:13:54.773Z,-1.44
2018-03-02T23:16:22.196Z,-1.56
2018-03-02T23:18:49.604Z,-1.54
2018-03-02T23:21:17.023Z,-1.49
2018-03-02T23:23:44.452Z,-1.63
2018-03-02T23:26:12.978Z,-1.56
2018-03-02T23:28:40.407Z,-1.57
2018-03-02T23:31:07.820Z,-1.66
2018-03-02T23:33:35.250Z,-1.67
2018-03-02T23:36:02.670Z,-1.59
2018-03-02T23:38:30.083Z,-1.57
2018-03-02T23:40:57.492Z,-1.58
2018-03-02T23:43:24.914Z,-1.57
2018-03-02T23:45:52.341Z,-1.62
2018-03-02T23:48:19.771Z,-1.55
2018-03-02T23:50:47.172Z,-1.58
2018-03-02T23:53:14.601Z,-1.70
2018-03-02T23:55:42.021Z,-1.54
2018-03-02T23:58:09.441Z,-1.67
